createdAt,value
2019-04-25T00:00:44.752Z,22.34
2019-04-25T00:03:12.208Z,22.34
2019-04-25T00:05:37.103Z,22.35
2019-04-25T00:08:02.768Z,22.34
2019-04-25T00:10:28.786Z,22.34
2019-04-25T00:12:54.805Z,22.34
2019-04-25T00:15:22.229Z,22.34
2019-04-25T00:17:46.871Z,22.33
2019-04-25T00:20:12.895Z,22.33
2019-04-25T00:22:39.299Z,22.33
2019-04-25T00:25:15.284Z,22.33
2019-04-25T00:27:31.997Z,22.32
2019-04-25T00:29:56.934Z,22.33
2019-04-25T00:32:22.942Z,22.33
2019-04-25T00:34:48.937Z,22.33
2019-04-25T00:37:14.931Z,22.33
2019-04-25T00:39:43.454Z,22.33
2019-04-25T00:42:06.952Z,22.32
2019-04-25T00:44:33.047Z,22.32
2019-04-25T00:46:59.084Z,22.32
2019-04-25T00:49:25.064Z,22.32
2019-04-25T00:51:52.371Z,22.32
2019-04-25T00:54:17.080Z,22.32
2019-04-25T00:56:45.797Z,22.32
2019-04-25T00:59:09.098Z,22.32
2019-04-25T01:01:35.111Z,22.31
2019-04-25T01:04:02.324Z,22.32
2019-04-25T01:06:27.107Z,22.32
2019-04-25T01:08:54.568Z,22.31
2019-04-25T01:11:19.116Z,22.32
2019-04-25T01:13:45.133Z,22.32
2019-04-25T01:16:11.989Z,22.31
2019-04-25T01:18:37.462Z,22.31
2019-04-25T01:21:04.468Z,22.31
2019-04-25T01:23:29.164Z,22.31
2019-04-25T01:25:55.847Z,22.31
2019-04-25T01:28:21.184Z,22.31
2019-04-25T01:30:47.886Z,22.30
2019-04-25T01:33:13.541Z,22.30
2019-04-25T01:35:39.223Z,22.30
2019-04-25T01:38:05.239Z,22.30
2019-04-25T01:40:31.244Z,22.30
2019-04-25T01:42:57.949Z,22.30
2019-04-25T01:45:23.952Z,22.30
2019-04-25T01:47:50.114Z,22.30
2019-04-25T01:50:15.289Z,22.29
2019-04-25T01:52:41.280Z,22.30
2019-04-25T01:55:07.291Z,22.29
2019-04-25T01:57:33.727Z,22.30
2019-04-25T01:59:59.316Z,22.30
2019-04-25T02:02:25.316Z,22.29
2019-04-25T02:04:51.419Z,22.29
2019-04-25T02:07:17.334Z,22.29
2019-04-25T02:09:43.618Z,22.29
2019-04-25T02:12:09.334Z,22.29
2019-04-25T02:14:35.336Z,22.29
2019-04-25T02:17:02.318Z,22.29
2019-04-25T02:19:27.347Z,22.29
2019-04-25T02:21:54.544Z,22.29
2019-04-25T02:24:19.397Z,22.29
2019-04-25T02:26:45.390Z,22.29
2019-04-25T02:29:11.405Z,22.29
2019-04-25T02:31:37.412Z,22.28
2019-04-25T02:34:06.565Z,22.28
2019-04-25T02:36:29.431Z,22.28
2019-04-25T02:38:59.581Z,22.28
2019-04-25T02:41:21.467Z,22.29
2019-04-25T02:43:47.482Z,22.28
2019-04-25T02:46:15.161Z,22.28
2019-04-25T02:48:39.512Z,22.28
2019-04-25T02:51:07.401Z,22.27
2019-04-25T02:53:34.476Z,22.27
2019-04-25T02:55:57.784Z,22.28
2019-04-25T02:58:24.311Z,22.28
2019-04-25T03:00:57.308Z,22.28
2019-04-25T03:03:15.598Z,22.28
2019-04-25T03:05:41.627Z,22.27
2019-04-25T03:08:10.073Z,22.27
2019-04-25T03:10:34.918Z,22.28
2019-04-25T03:13:00.301Z,22.28
2019-04-25T03:15:25.655Z,22.27
2019-04-25T03:17:51.649Z,22.26
2019-04-25T03:20:17.707Z,22.27
2019-04-25T03:22:44.465Z,22.26
2019-04-25T03:25:13.051Z,22.26
2019-04-25T03:27:35.730Z,22.26
2019-04-25T03:30:02.011Z,22.26
2019-04-25T03:32:28.394Z,22.26
2019-04-25T03:34:54.894Z,22.26
2019-04-25T03:37:19.850Z,22.26
2019-04-25T03:39:45.848Z,22.25
2019-04-25T03:42:12.043Z,22.25
2019-04-25T03:44:37.914Z,22.25
2019-04-25T03:47:06.442Z,22.26
2019-04-25T03:49:29.960Z,22.26
2019-04-25T03:51:55.963Z,22.27
2019-04-25T03:54:23.130Z,22.28
2019-04-25T03:56:53.676Z,22.28
2019-04-25T03:59:14.637Z,22.29
2019-04-25T04:01:39.976Z,22.29
2019-04-25T04:04:07.090Z,22.29
2019-04-25T04:06:32.002Z,22.29
2019-04-25T04:08:58.030Z,22.29
2019-04-25T04:11:24.028Z,22.28
2019-04-25T04:13:50.037Z,22.29
2019-04-25T04:16:16.039Z,22.28
2019-04-25T04:18:42.057Z,22.28
2019-04-25T04:21:08.968Z,22.28
2019-04-25T04:23:34.095Z,22.29
2019-04-25T04:26:00.147Z,22.29
2019-04-25T04:28:26.175Z,22.29
2019-04-25T04:30:53.950Z,22.29
2019-04-25T04:33:29.469Z,22.29
2019-04-25T04:35:44.243Z,22.30
2019-04-25T04:38:10.311Z,22.30
2019-04-25T04:40:36.311Z,22.30
2019-04-25T04:43:02.334Z,22.30
2019-04-25T04:45:28.540Z,22.31
2019-04-25T04:47:54.583Z,22.31
2019-04-25T04:50:20.578Z,22.31
2019-04-25T04:52:46.602Z,22.31
2019-04-25T04:55:14.616Z,22.31
2019-04-25T04:57:38.635Z,22.32
2019-04-25T05:00:04.663Z,22.32
2019-04-25T05:02:30.658Z,22.32
2019-04-25T05:04:56.683Z,22.32
2019-04-25T05:07:23.719Z,22.33
2019-04-25T05:09:48.701Z,22.33
2019-04-25T05:12:15.272Z,22.33
2019-04-25T05:14:40.804Z,22.34
2019-04-25T05:17:06.828Z,22.33
2019-04-25T05:19:33.526Z,22.33
2019-04-25T05:21:58.849Z,22.33
2019-04-25T05:24:26.257Z,22.32
2019-04-25T05:26:50.901Z,22.33
2019-04-25T05:29:21.034Z,22.33
2019-04-25T05:31:43.937Z,22.33
2019-04-25T05:34:08.970Z,22.32
2019-04-25T05:36:34.957Z,22.32
2019-04-25T05:39:00.971Z,22.32
2019-04-25T05:41:26.992Z,22.29
2019-04-25T05:43:53.590Z,22.32
2019-04-25T05:46:19.078Z,22.32
2019-04-25T05:48:45.223Z,22.32
2019-04-25T05:51:11.246Z,22.31
2019-04-25T05:53:37.273Z,22.32
2019-04-25T05:56:04.169Z,22.31
2019-04-25T05:58:29.284Z,22.30
2019-04-25T06:00:55.313Z,22.31
2019-04-25T06:03:21.305Z,22.31
2019-04-25T06:05:47.354Z,22.31
2019-04-25T06:08:14.140Z,22.31
2019-04-25T06:10:39.416Z,22.31
2019-04-25T06:13:05.455Z,22.31
2019-04-25T06:15:33.188Z,22.31
2019-04-25T06:17:57.489Z,22.31
2019-04-25T06:20:24.600Z,22.31
2019-04-25T06:22:49.514Z,22.31
2019-04-25T06:25:16.403Z,22.30
2019-04-25T06:27:41.552Z,22.31
2019-04-25T06:30:07.620Z,22.30
2019-04-25T06:32:35.026Z,22.30
2019-04-25T06:34:59.706Z,22.30
2019-04-25T06:37:25.887Z,22.31
2019-04-25T06:39:51.706Z,22.31
2019-04-25T06:42:17.739Z,22.31
2019-04-25T06:44:43.735Z,22.30
2019-04-25T06:47:09.765Z,22.30
2019-04-25T06:49:37.328Z,22.31
2019-04-25T06:52:01.795Z,22.30
2019-04-25T06:54:28.134Z,22.30
2019-04-25T06:56:53.824Z,22.30
2019-04-25T06:59:19.861Z,22.30
2019-04-25T07:01:45.860Z,22.30
2019-04-25T07:04:11.881Z,22.29
2019-04-25T07:06:37.882Z,22.30
2019-04-25T07:09:03.917Z,22.29
2019-04-25T07:11:30.490Z,22.30
2019-04-25T07:13:55.943Z,22.30
2019-04-25T07:16:24.048Z,22.30
2019-04-25T07:18:47.974Z,22.30
2019-04-25T07:21:14.301Z,22.31
2019-04-25T07:23:40.403Z,22.31
2019-04-25T07:26:06.050Z,22.32
2019-04-25T07:28:32.840Z,22.33
2019-04-25T07:30:58.083Z,22.32
2019-04-25T07:33:26.880Z,22.33
2019-04-25T07:35:50.080Z,22.32
2019-04-25T07:38:16.094Z,22.34
2019-04-25T07:40:43.352Z,22.35
2019-04-25T07:43:08.155Z,22.34
2019-04-25T07:45:35.045Z,22.35
2019-04-25T07:48:00.178Z,22.35
2019-04-25T07:50:27.000Z,22.36
2019-04-25T07:52:53.750Z,22.36
2019-04-25T07:55:18.268Z,22.36
2019-04-25T07:57:44.381Z,22.37
2019-04-25T08:00:10.291Z,22.38
2019-04-25T08:02:36.339Z,22.39
2019-04-25T08:05:04.155Z,22.39
2019-04-25T08:07:28.358Z,22.40
2019-04-25T08:09:54.362Z,22.40
2019-04-25T08:12:20.420Z,22.40
2019-04-25T08:14:46.448Z,22.42
2019-04-25T08:17:12.450Z,22.41
2019-04-25T08:19:39.319Z,22.43
2019-04-25T08:22:04.495Z,22.42
2019-04-25T08:24:30.787Z,22.43
2019-04-25T08:26:56.547Z,22.43
2019-04-25T08:29:23.655Z,22.42
2019-04-25T08:31:48.612Z,22.44
2019-04-25T08:34:14.692Z,22.44
2019-04-25T08:36:41.478Z,22.44
2019-04-25T08:39:06.599Z,22.45
2019-04-25T08:41:34.869Z,22.45
2019-04-25T08:43:58.671Z,22.47
2019-04-25T08:46:25.312Z,22.47
2019-04-25T08:48:50.808Z,22.48
2019-04-25T08:51:16.840Z,22.48
2019-04-25T08:53:44.942Z,22.49
2019-04-25T08:56:08.847Z,22.50
2019-04-25T08:58:35.448Z,22.49
2019-04-25T09:01:01.527Z,22.48
2019-04-25T09:03:26.886Z,22.50
2019-04-25T09:05:53.557Z,22.51
2019-04-25T09:08:18.903Z,22.51
2019-04-25T09:10:45.050Z,22.51
2019-04-25T09:13:10.995Z,22.51
2019-04-25T09:15:38.032Z,22.51
2019-04-25T09:18:04.047Z,22.52
2019-04-25T09:20:29.024Z,22.52
2019-04-25T09:22:55.045Z,22.52
2019-04-25T09:25:21.065Z,22.53
2019-04-25T09:27:47.123Z,22.53
2019-04-25T09:30:14.327Z,22.53
2019-04-25T09:32:39.905Z,22.54
2019-04-25T09:35:05.221Z,22.54
2019-04-25T09:37:31.223Z,22.53
2019-04-25T09:39:57.246Z,22.53
2019-04-25T09:42:23.802Z,22.52
2019-04-25T09:44:49.304Z,22.53
2019-04-25T09:47:15.299Z,22.53
2019-04-25T09:49:41.596Z,22.53
2019-04-25T09:52:07.358Z,22.53
2019-04-25T09:54:33.526Z,22.54
2019-04-25T09:56:59.421Z,22.54
2019-04-25T09:59:27.956Z,22.55
2019-04-25T10:01:51.609Z,22.51
2019-04-25T10:04:17.721Z,22.55
2019-04-25T10:06:44.954Z,22.55
2019-04-25T10:09:09.750Z,22.55
2019-04-25T10:11:35.759Z,22.56
2019-04-25T10:14:01.779Z,22.55
2019-04-25T10:16:27.776Z,22.56
2019-04-25T10:18:53.797Z,22.56
2019-04-25T10:21:19.817Z,22.56
2019-04-25T10:23:46.833Z,22.56
2019-04-25T10:26:11.950Z,22.57
2019-04-25T10:28:38.737Z,22.57
2019-04-25T10:31:03.982Z,22.58
2019-04-25T10:33:30.006Z,22.57
2019-04-25T10:35:59.587Z,22.58
2019-04-25T10:38:22.037Z,22.57
2019-04-25T10:40:48.015Z,22.58
2019-04-25T10:43:14.239Z,22.58
2019-04-25T10:45:40.739Z,22.58
2019-04-25T10:48:06.123Z,22.59
2019-04-25T10:50:33.994Z,22.59
2019-04-25T10:52:58.200Z,22.61
2019-04-25T10:55:24.216Z,22.60
2019-04-25T10:57:51.067Z,22.62
2019-04-25T11:00:16.224Z,22.61
2019-04-25T11:02:43.202Z,22.61
2019-04-25T11:05:08.279Z,22.63
2019-04-25T11:07:34.317Z,22.62
2019-04-25T11:10:00.368Z,22.62
2019-04-25T11:12:26.431Z,22.63
2019-04-25T11:14:53.307Z,22.64
2019-04-25T11:17:18.446Z,22.68
2019-04-25T11:19:44.614Z,22.74
2019-04-25T11:22:10.476Z,22.78
2019-04-25T11:24:36.494Z,22.78
2019-04-25T11:27:04.203Z,22.81
2019-04-25T11:29:28.492Z,22.80
2019-04-25T11:31:54.555Z,22.80
2019-04-25T11:34:20.645Z,22.82
2019-04-25T11:36:46.565Z,22.80
2019-04-25T11:39:13.547Z,22.79
2019-04-25T11:41:38.583Z,22.79
2019-04-25T11:44:04.690Z,22.77
2019-04-25T11:46:30.685Z,22.78
2019-04-25T11:48:56.687Z,22.79
2019-04-25T11:51:24.061Z,22.79
2019-04-25T11:53:48.731Z,22.79
2019-04-25T11:56:14.788Z,22.81
2019-04-25T11:58:40.783Z,22.81
2019-04-25T12:01:06.796Z,22.81
2019-04-25T12:03:33.616Z,22.81
2019-04-25T12:05:58.972Z,22.81
2019-04-25T12:08:25.095Z,22.80
2019-04-25T12:10:51.630Z,22.80
2019-04-25T12:13:17.144Z,22.81
2019-04-25T12:15:45.707Z,22.80
2019-04-25T12:18:09.181Z,22.81
2019-04-25T12:20:35.157Z,22.81
2019-04-25T12:23:08.112Z,22.81
2019-04-25T12:25:27.184Z,22.81
2019-04-25T12:27:53.804Z,22.82
2019-04-25T12:30:19.213Z,22.82
2019-04-25T12:32:46.405Z,22.82
2019-04-25T12:35:11.283Z,22.82
2019-04-25T12:37:37.689Z,22.82
2019-04-25T12:40:05.906Z,22.81
2019-04-25T12:42:29.708Z,22.81
2019-04-25T12:44:56.137Z,22.80
2019-04-25T12:47:21.761Z,22.81
2019-04-25T12:49:48.610Z,22.81
2019-04-25T12:52:13.853Z,22.81
2019-04-25T12:54:40.079Z,22.80
2019-04-25T12:57:06.796Z,22.78
2019-04-25T12:59:32.533Z,22.79
2019-04-25T13:01:58.531Z,22.78
2019-04-25T13:04:24.556Z,22.80
2019-04-25T13:06:50.590Z,22.81
2019-04-25T13:09:16.568Z,22.80
2019-04-25T13:11:54.066Z,22.80
2019-04-25T13:14:23.184Z,22.80
2019-04-25T13:16:52.285Z,22.80
2019-04-25T13:19:23.775Z,22.80
2019-04-25T13:21:44.311Z,22.79
2019-04-25T13:24:10.517Z,22.79
2019-04-25T13:26:36.317Z,22.78
2019-04-25T13:29:04.069Z,22.76
2019-04-25T13:31:28.364Z,22.78
2019-04-25T13:33:54.415Z,22.78
2019-04-25T13:36:20.402Z,22.77
2019-04-25T13:38:46.433Z,22.77
2019-04-25T13:41:12.434Z,22.77
2019-04-25T13:43:38.516Z,22.77
2019-04-25T13:46:04.538Z,22.77
2019-04-25T13:48:30.602Z,22.76
2019-04-25T13:50:56.604Z,22.77
2019-04-25T13:53:23.543Z,22.77
2019-04-25T13:55:48.639Z,22.77
2019-04-25T13:58:14.636Z,22.77
2019-04-25T14:00:40.666Z,22.78
2019-04-25T14:03:06.663Z,22.78
2019-04-25T14:05:33.996Z,22.77
2019-04-25T14:07:58.694Z,22.79
2019-04-25T14:10:25.190Z,22.77
2019-04-25T14:12:50.754Z,22.78
2019-04-25T14:15:16.829Z,22.79
2019-04-25T14:17:44.750Z,22.78
2019-04-25T14:20:08.935Z,22.78
2019-04-25T14:22:34.967Z,22.77
2019-04-25T14:25:00.963Z,22.79
2019-04-25T14:27:27.982Z,22.78
2019-04-25T14:29:53.570Z,22.77
2019-04-25T14:32:19.008Z,22.77
2019-04-25T14:34:45.018Z,22.77
2019-04-25T14:37:11.048Z,22.77
2019-04-25T14:39:37.076Z,22.77
2019-04-25T14:42:03.109Z,22.76
2019-04-25T14:44:29.141Z,22.77
2019-04-25T14:46:55.185Z,22.77
2019-04-25T14:49:21.644Z,22.77
2019-04-25T14:51:47.208Z,22.77
2019-04-25T14:54:13.226Z,22.77
2019-04-25T14:56:39.236Z,22.78
2019-04-25T14:59:05.263Z,22.77
2019-04-25T15:01:43.176Z,22.77
2019-04-25T15:03:57.334Z,22.77
2019-04-25T15:06:24.377Z,22.77
2019-04-25T15:08:49.380Z,22.77
2019-04-25T15:11:15.476Z,22.77
2019-04-25T15:13:41.477Z,22.78
2019-04-25T15:16:07.495Z,22.77
2019-04-25T15:18:45.842Z,22.77
2019-04-25T15:20:59.735Z,22.78
2019-04-25T15:23:25.898Z,22.78
2019-04-25T15:25:51.903Z,22.77
2019-04-25T15:28:17.922Z,22.78
2019-04-25T15:30:43.953Z,22.78
2019-04-25T15:33:09.952Z,22.79
2019-04-25T15:35:36.025Z,22.78
2019-04-25T15:38:02.023Z,22.78
2019-04-25T15:40:28.907Z,22.78
2019-04-25T15:42:54.088Z,22.78
2019-04-25T15:45:20.110Z,22.78
2019-04-25T15:47:46.162Z,22.78
2019-04-25T15:50:12.267Z,22.78
2019-04-25T15:52:39.044Z,22.78
2019-04-25T15:55:07.251Z,22.79
2019-04-25T15:57:30.323Z,22.79
2019-04-25T15:59:56.333Z,22.78
2019-04-25T16:02:22.333Z,22.78
2019-04-25T16:04:48.615Z,22.80
2019-04-25T16:07:14.955Z,22.78
2019-04-25T16:09:41.387Z,22.79
2019-04-25T16:12:07.213Z,22.79
2019-04-25T16:14:33.392Z,22.79
2019-04-25T16:16:59.266Z,22.79
2019-04-25T16:19:25.305Z,22.79
2019-04-25T16:21:51.411Z,22.80
2019-04-25T16:24:17.964Z,22.80
2019-04-25T16:26:43.960Z,22.79
2019-04-25T16:29:10.064Z,22.80
2019-04-25T16:31:36.760Z,22.79
2019-04-25T16:34:02.086Z,22.80
2019-04-25T16:36:28.095Z,22.79
2019-04-25T16:38:54.592Z,22.80
2019-04-25T16:41:20.617Z,22.79
2019-04-25T16:43:46.878Z,22.80
2019-04-25T16:46:12.900Z,22.80
2019-04-25T16:48:39.225Z,22.78
2019-04-25T16:51:05.036Z,22.79
2019-04-25T16:53:31.414Z,22.79
2019-04-25T16:55:57.091Z,22.78
2019-04-25T16:58:23.420Z,22.76
2019-04-25T17:00:49.137Z,22.77
2019-04-25T17:03:15.165Z,22.77
2019-04-25T17:05:41.194Z,22.78
2019-04-25T17:08:07.222Z,22.78
2019-04-25T17:10:36.916Z,22.78
2019-04-25T17:13:02.712Z,22.78
2019-04-25T17:15:30.494Z,22.79
2019-04-25T17:17:55.027Z,22.78
2019-04-25T17:20:21.035Z,22.78
2019-04-25T17:22:47.290Z,22.80
2019-04-25T17:25:13.386Z,22.81
2019-04-25T17:27:39.405Z,22.81
2019-04-25T17:30:05.424Z,22.80
2019-04-25T17:32:31.726Z,22.81
2019-04-25T17:34:57.441Z,22.80
2019-04-25T17:37:23.462Z,22.81
2019-04-25T17:39:49.918Z,22.81
2019-04-25T17:42:15.904Z,22.82
2019-04-25T17:44:42.572Z,22.83
2019-04-25T17:47:08.016Z,22.83
2019-04-25T17:49:34.264Z,22.82
2019-04-25T17:52:00.028Z,22.83
2019-04-25T17:54:26.078Z,22.82
2019-04-25T17:56:52.073Z,22.83
2019-04-25T17:59:18.071Z,22.83
2019-04-25T18:01:44.348Z,22.83
2019-04-25T18:04:10.239Z,22.83
2019-04-25T18:06:36.266Z,22.85
2019-04-25T18:09:02.281Z,22.85
2019-04-25T18:11:28.293Z,22.85
2019-04-25T18:13:54.370Z,22.85
2019-04-25T18:16:20.332Z,22.85
2019-04-25T18:18:46.320Z,22.85
2019-04-25T18:21:12.337Z,22.85
2019-04-25T18:23:38.674Z,22.86
2019-04-25T18:26:04.386Z,22.86
2019-04-25T18:28:30.378Z,22.86
2019-04-25T18:30:56.425Z,22.87
2019-04-25T18:33:22.398Z,22.87
2019-04-25T18:35:48.504Z,22.87
2019-04-25T18:38:14.550Z,22.87
2019-04-25T18:40:40.544Z,22.88
2019-04-25T18:43:06.563Z,22.87
2019-04-25T18:45:32.574Z,22.87
2019-04-25T18:47:58.729Z,22.89
2019-04-25T18:50:24.727Z,22.88
2019-04-25T18:52:50.755Z,22.87
2019-04-25T18:55:16.750Z,22.87
2019-04-25T18:57:43.290Z,22.88
2019-04-25T19:00:08.805Z,22.88
2019-04-25T19:02:34.795Z,22.88
2019-04-25T19:05:03.446Z,22.88
2019-04-25T19:07:30.174Z,22.88
2019-04-25T19:12:35.953Z,22.88
2019-04-25T19:15:01.987Z,22.88
2019-04-25T19:17:35.677Z,22.88
2019-04-25T19:20:01.702Z,22.88
2019-04-25T19:22:27.721Z,22.88
2019-04-25T19:24:53.786Z,22.88
2019-04-25T19:27:24.096Z,22.88
2019-04-25T19:29:45.971Z,22.88
2019-04-25T19:32:11.990Z,22.89
2019-04-25T19:34:37.999Z,22.88
2019-04-25T19:37:04.013Z,22.89
2019-04-25T19:39:30.109Z,22.88
2019-04-25T19:41:56.099Z,22.88
2019-04-25T19:44:22.310Z,22.88
2019-04-25T19:46:49.204Z,22.89
2019-04-25T19:49:14.351Z,22.85
2019-04-25T19:51:41.646Z,22.88
2019-04-25T19:54:06.412Z,22.88
2019-04-25T19:56:32.397Z,22.89
2019-04-25T19:58:58.403Z,22.89
2019-04-25T20:01:24.416Z,22.89
2019-04-25T20:03:56.461Z,22.89
2019-04-25T20:06:16.439Z,22.88
2019-04-25T20:08:43.516Z,22.89
2019-04-25T20:11:08.481Z,22.89
2019-04-25T20:13:34.470Z,22.90
2019-04-25T20:16:00.501Z,22.90
2019-04-25T20:18:26.512Z,22.89
2019-04-25T20:20:52.531Z,22.90
2019-04-25T20:23:18.719Z,22.89
2019-04-25T20:25:45.400Z,22.90
2019-04-25T20:28:10.808Z,22.91
2019-04-25T20:30:36.798Z,22.91
2019-04-25T20:33:02.818Z,22.91
2019-04-25T20:35:28.816Z,22.91
2019-04-25T20:37:55.621Z,22.92
2019-04-25T20:40:20.915Z,22.92
2019-04-25T20:42:47.964Z,22.93
2019-04-25T20:45:12.870Z,22.93
2019-04-25T20:47:38.881Z,22.94
2019-04-25T20:50:04.904Z,22.94
2019-04-25T20:52:30.907Z,22.94
2019-04-25T20:54:57.005Z,22.94
2019-04-25T20:57:22.903Z,22.92
2019-04-25T20:59:49.340Z,22.91
2019-04-25T21:02:14.944Z,22.90
2019-04-25T21:04:40.965Z,22.90
2019-04-25T21:07:06.963Z,22.89
2019-04-25T21:09:32.979Z,22.89
2019-04-25T21:11:58.991Z,22.88
2019-04-25T21:14:25.026Z,22.89
2019-04-25T21:16:51.837Z,22.88
2019-04-25T21:19:17.047Z,22.88
2019-04-25T21:21:43.065Z,22.87
2019-04-25T21:24:09.076Z,22.87
2019-04-25T21:26:35.084Z,22.87
2019-04-25T21:29:01.104Z,22.86
2019-04-25T21:31:27.095Z,22.87
2019-04-25T21:33:53.117Z,22.86
2019-04-25T21:36:19.129Z,22.85
2019-04-25T21:38:45.146Z,22.85
2019-04-25T21:41:11.163Z,22.86
2019-04-25T21:43:37.158Z,22.84
2019-04-25T21:46:03.194Z,22.84
2019-04-25T21:48:29.170Z,22.84
2019-04-25T21:50:55.189Z,22.83
2019-04-25T21:53:21.178Z,22.84
2019-04-25T21:55:47.183Z,22.83
2019-04-25T21:58:13.193Z,22.84
2019-04-25T22:00:39.219Z,22.82
2019-04-25T22:03:05.244Z,22.82
2019-04-25T22:05:31.253Z,22.82
2019-04-25T22:07:57.257Z,22.82
2019-04-25T22:10:23.293Z,22.81
2019-04-25T22:12:49.295Z,22.82
2019-04-25T22:15:15.296Z,22.81
2019-04-25T22:17:41.313Z,22.81
2019-04-25T22:20:07.311Z,22.82
2019-04-25T22:22:33.335Z,22.81
2019-04-25T22:25:00.422Z,22.81
2019-04-25T22:27:25.448Z,22.80
2019-04-25T22:29:51.451Z,22.81
2019-04-25T22:32:17.466Z,22.80
2019-04-25T22:34:52.029Z,22.80
2019-04-25T22:37:09.503Z,22.80
2019-04-25T22:39:35.517Z,22.80
2019-04-25T22:42:01.967Z,22.79
2019-04-25T22:44:27.529Z,22.80
2019-04-25T22:46:53.531Z,22.80
2019-04-25T22:49:19.547Z,22.79
2019-04-25T22:51:45.543Z,22.79
2019-04-25T22:54:11.820Z,22.79
2019-04-25T22:56:37.565Z,22.79
2019-04-25T22:59:03.562Z,22.78
2019-04-25T23:01:29.598Z,22.78
2019-04-25T23:03:55.589Z,22.79
2019-04-25T23:06:21.601Z,22.78
2019-04-25T23:08:47.606Z,22.78
2019-04-25T23:11:13.617Z,22.78
2019-04-25T23:13:39.639Z,22.78
2019-04-25T23:16:05.648Z,22.77
2019-04-25T23:18:31.701Z,22.78
2019-04-25T23:20:57.691Z,22.78
2019-04-25T23:23:23.694Z,22.77
2019-04-25T23:25:49.721Z,22.77
2019-04-25T23:28:15.708Z,22.76
2019-04-25T23:30:41.729Z,22.76
2019-04-25T23:33:08.475Z,22.76
2019-04-25T23:35:34.228Z,22.77
2019-04-25T23:37:59.755Z,22.77
2019-04-25T23:40:25.747Z,22.76
2019-04-25T23:42:51.761Z,22.76
2019-04-25T23:45:17.758Z,22.77
2019-04-25T23:47:43.785Z,22.76
2019-04-25T23:50:10.503Z,22.76
2019-04-25T23:52:35.799Z,22.76
2019-04-25T23:55:01.842Z,22.76
2019-04-25T23:57:27.829Z,22.76
2019-04-25T23:59:53.850Z,22.76
